createdAt,value
2022-10-30T00:00:32.200Z,17.36
2022-10-30T00:01:32.233Z,17.41
2022-10-30T00:02:32.146Z,17.26
2022-10-30T00:03:41.747Z,17.29
2022-10-30T00:04:31.998Z,17.24
2022-10-30T00:05:31.951Z,17.23
2022-10-30T00:06:31.899Z,17.15
2022-10-30T00:07:31.862Z,17.15
2022-10-30T00:08:31.798Z,17.15
2022-10-30T00:09:31.745Z,17.05
2022-10-30T00:10:31.705Z,17.06
2022-10-30T00:11:31.648Z,16.94
2022-10-30T00:12:31.606Z,16.90
2022-10-30T00:13:31.542Z,16.87
2022-10-30T00:14:31.496Z,16.96
2022-10-30T00:15:31.436Z,17.06
2022-10-30T00:16:31.401Z,17.05
2022-10-30T00:17:31.425Z,17.04
2022-10-30T00:18:31.297Z,17.06
2022-10-30T00:19:31.246Z,17.05
2022-10-30T00:20:31.188Z,16.90
2022-10-30T00:21:31.160Z,17.02
2022-10-30T00:22:31.094Z,16.93
2022-10-30T00:23:31.046Z,16.89
2022-10-30T00:24:31.008Z,16.94
2022-10-30T00:25:31.158Z,16.90
2022-10-30T00:26:30.885Z,16.94
2022-10-30T00:27:30.845Z,16.93
2022-10-30T00:28:30.789Z,16.97
2022-10-30T00:29:30.730Z,16.94
2022-10-30T00:30:30.693Z,17.06
2022-10-30T00:31:30.625Z,17.08
2022-10-30T00:32:30.595Z,17.09
2022-10-30T00:33:30.527Z,17.05
2022-10-30T00:34:30.477Z,17.05
2022-10-30T00:35:30.424Z,16.93
2022-10-30T00:36:30.380Z,16.87
2022-10-30T00:37:30.336Z,16.96
2022-10-30T00:38:30.275Z,16.93
2022-10-30T00:39:30.221Z,16.96
2022-10-30T00:40:30.174Z,16.86
2022-10-30T00:41:30.118Z,16.94
2022-10-30T00:42:30.101Z,17.05
2022-10-30T00:43:30.022Z,17.04
2022-10-30T00:44:29.970Z,17.05
2022-10-30T00:45:29.918Z,17.12
2022-10-30T00:46:29.870Z,17.14
2022-10-30T00:47:30.026Z,17.09
2022-10-30T00:48:29.778Z,17.09
2022-10-30T00:49:29.714Z,17.14
2022-10-30T00:50:29.667Z,17.19
2022-10-30T00:51:29.616Z,17.11
2022-10-30T00:52:29.563Z,17.11
2022-10-30T00:53:29.525Z,17.15
2022-10-30T00:54:29.477Z,17.12
2022-10-30T00:55:29.433Z,17.22
2022-10-30T00:56:29.360Z,17.16
2022-10-30T00:57:29.320Z,17.09
2022-10-30T00:58:29.277Z,17.14
2022-10-30T00:59:29.212Z,17.01
2022-10-30T01:00:29.242Z,17.15
2022-10-30T01:01:29.249Z,17.12
2022-10-30T01:02:29.254Z,17.14
2022-10-30T01:03:29.005Z,17.23
2022-10-30T01:04:30.289Z,17.29
2022-10-30T01:05:28.921Z,17.36
2022-10-30T01:06:28.853Z,17.27
2022-10-30T01:07:28.804Z,17.45
2022-10-30T01:08:28.772Z,17.48
2022-10-30T01:09:28.724Z,17.48
2022-10-30T01:10:28.672Z,17.52
2022-10-30T01:11:28.615Z,17.46
2022-10-30T01:12:28.547Z,17.46
2022-10-30T01:13:28.499Z,17.49
2022-10-30T01:14:28.451Z,17.48
2022-10-30T01:15:28.412Z,17.49
2022-10-30T01:16:28.348Z,17.49
2022-10-30T01:17:28.291Z,17.44
2022-10-30T01:18:28.250Z,17.49
2022-10-30T01:19:28.191Z,17.48
2022-10-30T01:20:28.142Z,17.44
2022-10-30T01:21:28.105Z,17.48
2022-10-30T01:22:28.984Z,17.56
2022-10-30T01:23:28.009Z,17.54
2022-10-30T01:24:27.944Z,17.44
2022-10-30T01:25:27.891Z,17.46
2022-10-30T01:26:27.850Z,17.41
2022-10-30T01:27:27.805Z,17.33
2022-10-30T01:28:27.740Z,17.36
2022-10-30T01:29:27.690Z,17.26
2022-10-30T01:30:27.651Z,17.20
2022-10-30T01:31:27.587Z,17.12
2022-10-30T01:32:27.566Z,17.26
2022-10-30T01:33:27.488Z,17.41
2022-10-30T01:34:27.576Z,17.41
2022-10-30T01:35:27.386Z,17.46
2022-10-30T01:36:27.339Z,17.46
2022-10-30T01:37:27.299Z,17.45
2022-10-30T01:38:27.237Z,17.42
2022-10-30T01:39:27.198Z,17.42
2022-10-30T01:40:27.147Z,17.42
2022-10-30T01:41:27.082Z,17.38
2022-10-30T01:42:27.037Z,17.41
2022-10-30T01:43:26.984Z,17.26
2022-10-30T01:44:26.930Z,17.26
2022-10-30T01:45:26.905Z,17.15
2022-10-30T01:46:26.842Z,17.06
2022-10-30T01:47:26.776Z,17.02
2022-10-30T01:48:26.725Z,16.97
2022-10-30T01:49:26.713Z,16.91
2022-10-30T01:50:26.647Z,16.86
2022-10-30T01:51:26.594Z,16.81
2022-10-30T01:52:26.543Z,16.71
2022-10-30T01:53:26.478Z,16.65
2022-10-30T01:54:26.423Z,16.58
2022-10-30T01:55:26.376Z,16.51
2022-10-30T01:56:27.382Z,16.46
2022-10-30T01:57:26.389Z,16.39
2022-10-30T01:58:26.247Z,16.36
2022-10-30T01:59:26.168Z,16.35
2022-10-30T02:00:26.123Z,16.29
2022-10-30T02:01:26.235Z,16.26
2022-10-30T02:02:26.201Z,16.36
2022-10-30T02:03:25.972Z,16.38
2022-10-30T02:04:25.941Z,16.36
2022-10-30T02:05:25.872Z,16.33
2022-10-30T02:06:25.815Z,16.38
2022-10-30T02:07:25.784Z,16.35
2022-10-30T02:08:25.717Z,16.43
2022-10-30T02:09:25.671Z,16.41
2022-10-30T02:10:25.633Z,16.56
2022-10-30T02:11:25.563Z,16.57
2022-10-30T02:12:25.527Z,16.56
2022-10-30T02:13:25.462Z,16.53
2022-10-30T02:14:25.429Z,16.56
2022-10-30T02:15:25.360Z,16.57
2022-10-30T02:16:25.310Z,16.56
2022-10-30T02:17:25.257Z,16.64
2022-10-30T02:18:25.231Z,16.64
2022-10-30T02:19:25.154Z,16.79
2022-10-30T02:20:25.103Z,16.57
2022-10-30T02:21:25.051Z,16.72
2022-10-30T02:22:25.136Z,16.68
2022-10-30T02:23:24.953Z,16.64
2022-10-30T02:24:24.909Z,16.64
2022-10-30T02:25:24.855Z,16.58
2022-10-30T02:26:24.799Z,16.64
2022-10-30T02:27:24.749Z,16.69
2022-10-30T02:28:24.717Z,16.66
2022-10-30T02:29:24.647Z,16.69
2022-10-30T02:30:24.602Z,16.60
2022-10-30T02:31:24.568Z,16.61
2022-10-30T02:32:24.499Z,16.58
2022-10-30T02:33:24.500Z,16.54
2022-10-30T02:34:24.396Z,16.56
2022-10-30T02:35:24.347Z,16.46
2022-10-30T02:36:24.297Z,16.46
2022-10-30T02:37:24.243Z,16.38
2022-10-30T02:38:24.192Z,16.32
2022-10-30T02:39:24.194Z,16.16
2022-10-30T02:40:24.105Z,16.16
2022-10-30T02:41:24.035Z,16.26
2022-10-30T02:42:23.986Z,16.20
2022-10-30T02:43:23.958Z,16.20
2022-10-30T02:44:23.890Z,16.05
2022-10-30T02:45:23.834Z,16.02
2022-10-30T02:46:23.781Z,15.90
2022-10-30T02:47:23.732Z,15.83
2022-10-30T02:48:23.693Z,15.86
2022-10-30T02:49:23.653Z,15.97
2022-10-30T02:50:23.581Z,16.05
2022-10-30T02:51:23.537Z,16.10
2022-10-30T02:52:23.490Z,16.10
2022-10-30T02:53:23.443Z,16.23
2022-10-30T02:54:23.388Z,16.31
2022-10-30T02:55:23.324Z,16.32
2022-10-30T02:56:23.277Z,16.42
2022-10-30T02:57:23.231Z,16.41
2022-10-30T02:58:23.171Z,16.47
2022-10-30T02:59:23.142Z,16.41
2022-10-30T03:00:23.067Z,16.42
2022-10-30T03:01:23.173Z,16.57
2022-10-30T03:02:23.026Z,16.61
2022-10-30T03:03:24.178Z,16.54
2022-10-30T03:04:22.865Z,16.60
2022-10-30T03:05:22.819Z,16.53
2022-10-30T03:06:22.771Z,16.56
2022-10-30T03:07:22.714Z,16.42
2022-10-30T03:08:22.681Z,16.47
2022-10-30T03:09:22.611Z,16.47
2022-10-30T03:10:22.560Z,16.41
2022-10-30T03:11:22.530Z,16.35
2022-10-30T03:12:22.468Z,16.39
2022-10-30T03:13:22.413Z,16.41
2022-10-30T03:14:22.356Z,16.47
2022-10-30T03:15:22.311Z,16.54
2022-10-30T03:16:22.260Z,16.47
2022-10-30T03:17:22.227Z,16.56
2022-10-30T03:18:22.157Z,16.60
2022-10-30T03:19:22.099Z,16.60
2022-10-30T03:20:22.047Z,16.71
2022-10-30T03:21:22.001Z,16.65
2022-10-30T03:22:21.964Z,16.71
2022-10-30T03:23:21.894Z,16.60
2022-10-30T03:24:21.862Z,16.78
2022-10-30T03:25:21.802Z,16.66
2022-10-30T03:26:21.764Z,16.65
2022-10-30T03:27:21.694Z,16.66
2022-10-30T03:28:21.640Z,16.66
2022-10-30T03:29:21.596Z,16.65
2022-10-30T03:30:21.540Z,16.64
2022-10-30T03:31:21.508Z,16.66
2022-10-30T03:32:21.470Z,16.50
2022-10-30T03:33:21.385Z,16.53
2022-10-30T03:34:21.356Z,16.57
2022-10-30T03:35:21.286Z,16.69
2022-10-30T03:36:21.232Z,16.65
2022-10-30T03:37:21.196Z,16.66
2022-10-30T03:38:21.140Z,16.58
2022-10-30T03:39:21.089Z,16.61
2022-10-30T03:40:21.030Z,16.54
2022-10-30T03:41:20.994Z,16.50
2022-10-30T03:42:20.944Z,16.54
2022-10-30T03:43:20.895Z,16.60
2022-10-30T03:44:20.827Z,16.58
2022-10-30T03:45:20.790Z,16.56
2022-10-30T03:46:20.730Z,16.58
2022-10-30T03:47:20.695Z,16.53
2022-10-30T03:48:20.649Z,16.46
2022-10-30T03:49:20.574Z,16.42
2022-10-30T03:50:20.520Z,16.43
2022-10-30T03:51:20.497Z,16.46
2022-10-30T03:52:20.421Z,16.35
2022-10-30T03:53:20.395Z,16.33
2022-10-30T03:54:20.345Z,16.39
2022-10-30T03:55:20.272Z,16.35
2022-10-30T03:56:20.218Z,16.35
2022-10-30T03:57:20.171Z,16.41
2022-10-30T03:58:20.133Z,16.36
2022-10-30T03:59:20.067Z,16.46
2022-10-30T04:00:20.018Z,16.54
2022-10-30T04:01:20.065Z,16.58
2022-10-30T04:03:19.890Z,16.51
2022-10-30T04:04:19.817Z,16.50
2022-10-30T04:05:19.764Z,16.36
2022-10-30T04:06:19.706Z,16.32
2022-10-30T04:07:19.656Z,16.23
2022-10-30T04:08:19.619Z,16.17
2022-10-30T04:09:19.567Z,16.00
2022-10-30T04:10:22.915Z,15.83
2022-10-30T04:11:19.541Z,15.75
2022-10-30T04:12:19.404Z,15.62
2022-10-30T04:13:19.368Z,15.54
2022-10-30T04:14:19.301Z,15.51
2022-10-30T04:15:19.263Z,15.51
2022-10-30T04:16:19.225Z,15.47
2022-10-30T04:17:19.154Z,15.42
2022-10-30T04:18:19.156Z,15.44
2022-10-30T04:19:19.057Z,15.29
2022-10-30T04:20:18.992Z,15.25
2022-10-30T04:21:18.963Z,15.28
2022-10-30T04:22:18.893Z,15.27
2022-10-30T04:23:18.844Z,15.27
2022-10-30T04:24:18.811Z,15.24
2022-10-30T04:25:18.745Z,15.25
2022-10-30T04:26:18.710Z,15.25
2022-10-30T04:27:18.640Z,15.36
2022-10-30T04:28:18.604Z,15.29
2022-10-30T04:29:18.553Z,15.39
2022-10-30T04:30:18.487Z,15.37
2022-10-30T04:31:18.435Z,15.29
2022-10-30T04:32:18.383Z,15.24
2022-10-30T04:33:18.332Z,15.29
2022-10-30T04:34:18.306Z,15.28
2022-10-30T04:35:18.238Z,15.31
2022-10-30T04:36:18.182Z,15.35
2022-10-30T04:37:18.132Z,15.36
2022-10-30T04:38:18.085Z,15.37
2022-10-30T04:39:18.040Z,15.36
2022-10-30T04:40:17.977Z,15.37
2022-10-30T04:41:17.925Z,15.43
2022-10-30T04:42:17.874Z,15.43
2022-10-30T04:43:17.820Z,15.43
2022-10-30T04:44:17.784Z,15.51
2022-10-30T04:45:17.739Z,15.47
2022-10-30T04:46:17.666Z,15.55
2022-10-30T04:47:17.719Z,15.58
2022-10-30T04:48:17.566Z,15.49
2022-10-30T04:49:17.537Z,15.52
2022-10-30T04:50:17.478Z,15.62
2022-10-30T04:51:17.413Z,15.61
2022-10-30T04:52:17.358Z,15.54
2022-10-30T04:53:17.309Z,15.51
2022-10-30T04:54:17.269Z,15.47
2022-10-30T04:55:17.207Z,15.51
2022-10-30T04:56:17.155Z,15.39
2022-10-30T04:57:17.118Z,15.40
2022-10-30T04:58:17.054Z,15.37
2022-10-30T04:59:17.017Z,15.42
2022-10-30T05:00:16.951Z,15.51
2022-10-30T05:01:16.963Z,15.52
2022-10-30T05:02:17.000Z,15.51
2022-10-30T05:03:16.817Z,15.52
2022-10-30T05:04:16.750Z,15.54
2022-10-30T05:05:16.697Z,15.57
2022-10-30T05:06:16.660Z,15.54
2022-10-30T05:07:16.592Z,15.47
2022-10-30T05:08:16.543Z,15.51
2022-10-30T05:09:16.491Z,15.43
2022-10-30T05:10:16.440Z,15.58
2022-10-30T05:11:16.386Z,15.64
2022-10-30T05:12:16.350Z,15.58
2022-10-30T05:13:16.285Z,15.65
2022-10-30T05:14:16.235Z,15.76
2022-10-30T05:15:16.196Z,15.79
2022-10-30T05:16:16.133Z,15.73
2022-10-30T05:17:16.125Z,15.77
2022-10-30T05:18:16.030Z,15.80
2022-10-30T05:19:15.978Z,15.68
2022-10-30T05:20:18.798Z,15.75
2022-10-30T05:21:15.876Z,15.70
2022-10-30T05:22:15.838Z,15.58
2022-10-30T05:23:15.773Z,15.47
2022-10-30T05:24:15.723Z,15.39
2022-10-30T05:25:15.693Z,15.40
2022-10-30T05:26:15.616Z,15.36
2022-10-30T05:27:15.586Z,15.27
2022-10-30T05:28:15.515Z,15.07
2022-10-30T05:29:15.464Z,15.17
2022-10-30T05:30:15.414Z,15.03
2022-10-30T05:31:15.372Z,14.97
2022-10-30T05:32:15.322Z,14.97
2022-10-30T05:33:15.273Z,14.89
2022-10-30T05:34:15.205Z,14.85
2022-10-30T05:35:15.153Z,14.81
2022-10-30T05:36:15.104Z,14.77
2022-10-30T05:37:15.064Z,14.77
2022-10-30T05:38:15.011Z,14.79
2022-10-30T05:39:14.964Z,14.81
2022-10-30T05:40:14.898Z,14.82
2022-10-30T05:41:14.845Z,14.82
2022-10-30T05:42:14.817Z,14.73
2022-10-30T05:43:14.744Z,14.72
2022-10-30T05:44:16.008Z,14.79
2022-10-30T05:45:14.639Z,14.85
2022-10-30T05:46:14.588Z,14.79
2022-10-30T05:47:14.535Z,14.79
2022-10-30T05:48:14.501Z,14.72
2022-10-30T05:49:14.457Z,14.88
2022-10-30T05:50:14.383Z,14.72
2022-10-30T05:51:14.344Z,14.85
2022-10-30T05:52:14.289Z,14.85
2022-10-30T05:53:14.246Z,14.77
2022-10-30T05:54:14.191Z,14.86
2022-10-30T05:55:14.126Z,14.85
2022-10-30T05:56:14.084Z,14.78
2022-10-30T05:57:14.021Z,14.86
2022-10-30T05:58:13.965Z,14.84
2022-10-30T05:59:13.930Z,14.85
2022-10-30T06:00:13.863Z,14.91
2022-10-30T06:01:13.894Z,15.06
2022-10-30T06:02:13.892Z,15.19
2022-10-30T06:03:13.710Z,15.19
2022-10-30T06:04:13.656Z,15.21
2022-10-30T06:05:13.689Z,15.18
2022-10-30T06:06:13.596Z,15.28
2022-10-30T06:07:13.498Z,15.42
2022-10-30T06:08:22.829Z,15.42
2022-10-30T06:09:13.410Z,15.37
2022-10-30T06:10:13.343Z,15.36
2022-10-30T06:11:13.309Z,15.29
2022-10-30T06:12:13.242Z,15.24
2022-10-30T06:13:13.190Z,15.36
2022-10-30T06:14:13.137Z,15.40
2022-10-30T06:15:13.084Z,15.40
2022-10-30T06:16:13.051Z,15.55
2022-10-30T06:17:12.987Z,15.57
2022-10-30T06:18:12.932Z,15.54
2022-10-30T06:19:17.424Z,15.62
2022-10-30T06:20:12.842Z,15.72
2022-10-30T06:21:12.778Z,15.70
2022-10-30T06:22:12.725Z,15.70
2022-10-30T06:23:12.675Z,15.70
2022-10-30T06:24:12.637Z,15.73
2022-10-30T06:25:12.570Z,15.77
2022-10-30T06:26:12.516Z,15.68
2022-10-30T06:27:12.480Z,15.62
2022-10-30T06:28:12.414Z,15.57
2022-10-30T06:29:12.364Z,15.57
2022-10-30T06:30:12.316Z,15.54
2022-10-30T06:31:12.294Z,15.59
2022-10-30T06:32:12.209Z,15.51
2022-10-30T06:33:12.157Z,15.47
2022-10-30T06:34:12.103Z,15.42
2022-10-30T06:35:12.068Z,15.35
2022-10-30T06:36:12.016Z,15.36
2022-10-30T06:37:11.996Z,15.21
2022-10-30T06:38:11.900Z,15.25
2022-10-30T06:39:11.852Z,15.15
2022-10-30T06:40:11.808Z,15.22
2022-10-30T06:41:11.759Z,15.25
2022-10-30T06:42:11.697Z,15.27
2022-10-30T06:43:11.655Z,15.24
2022-10-30T06:44:11.593Z,15.22
2022-10-30T06:45:11.540Z,15.37
2022-10-30T06:46:11.491Z,15.44
2022-10-30T06:47:11.472Z,15.58
2022-10-30T06:48:11.382Z,15.58
2022-10-30T06:49:11.358Z,15.59
2022-10-30T06:50:11.282Z,15.67
2022-10-30T06:51:11.230Z,15.80
2022-10-30T06:52:11.180Z,15.72
2022-10-30T06:53:11.143Z,15.76
2022-10-30T06:54:11.075Z,15.80
2022-10-30T06:55:11.032Z,15.80
2022-10-30T06:56:10.976Z,15.80
2022-10-30T06:57:10.935Z,15.83
2022-10-30T06:58:10.870Z,15.95
2022-10-30T06:59:10.822Z,16.00
2022-10-30T07:00:10.787Z,16.01
2022-10-30T07:01:10.722Z,16.15
2022-10-30T07:02:11.361Z,16.13
2022-10-30T07:03:10.616Z,16.36
2022-10-30T07:04:10.565Z,16.42
2022-10-30T07:05:10.515Z,16.60
2022-10-30T07:06:10.477Z,16.83
2022-10-30T07:07:10.415Z,17.06
2022-10-30T07:08:10.359Z,17.29
2022-10-30T07:09:10.309Z,17.42
2022-10-30T07:10:10.277Z,17.71
2022-10-30T07:11:10.226Z,18.00
2022-10-30T07:12:10.161Z,18.23
2022-10-30T07:13:10.110Z,18.49
2022-10-30T07:14:10.062Z,18.53
2022-10-30T07:15:10.028Z,18.75
2022-10-30T07:16:09.968Z,18.98
2022-10-30T07:17:09.958Z,19.07
2022-10-30T07:18:09.865Z,18.98
2022-10-30T07:19:09.834Z,19.00
2022-10-30T07:20:09.771Z,19.16
2022-10-30T07:21:09.725Z,19.30
2022-10-30T07:22:09.672Z,19.48
2022-10-30T07:23:09.629Z,19.52
2022-10-30T07:24:09.584Z,19.81
2022-10-30T07:25:09.550Z,19.82
2022-10-30T07:26:09.489Z,19.94
2022-10-30T07:27:09.463Z,20.00
2022-10-30T07:28:09.394Z,20.03
2022-10-30T07:29:09.349Z,20.11
2022-10-30T07:30:09.319Z,20.26
2022-10-30T07:31:09.271Z,20.48
2022-10-30T07:32:09.212Z,20.58
2022-10-30T07:33:09.179Z,20.48
2022-10-30T07:34:09.120Z,20.63
2022-10-30T07:35:09.076Z,20.69
2022-10-30T07:36:09.047Z,20.82
2022-10-30T07:37:08.987Z,21.09
2022-10-30T07:38:08.957Z,21.30
2022-10-30T07:39:08.901Z,21.46
2022-10-30T07:40:12.675Z,21.57
2022-10-30T07:41:08.822Z,21.36
2022-10-30T07:42:08.770Z,21.22
2022-10-30T07:43:08.720Z,20.96
2022-10-30T07:44:08.679Z,20.56
2022-10-30T07:46:08.608Z,21.18
2022-10-30T07:47:08.546Z,21.33
2022-10-30T07:48:08.505Z,21.52
2022-10-30T07:49:08.462Z,21.95
2022-10-30T07:50:08.422Z,22.36
2022-10-30T07:51:08.390Z,22.94
2022-10-30T07:52:11.773Z,23.51
2022-10-30T07:53:08.296Z,24.06
2022-10-30T07:54:08.251Z,24.47
2022-10-30T07:55:08.226Z,24.70
2022-10-30T07:56:08.168Z,25.06
2022-10-30T07:57:08.142Z,25.08
2022-10-30T07:58:08.085Z,25.14
2022-10-30T07:59:08.046Z,25.29
2022-10-30T08:00:08.018Z,25.41
2022-10-30T08:01:08.035Z,25.62
2022-10-30T08:02:08.071Z,25.81
2022-10-30T08:03:07.884Z,25.72
2022-10-30T08:04:07.859Z,25.73
2022-10-30T08:05:07.827Z,25.84
2022-10-30T08:07:07.744Z,25.43
2022-10-30T08:08:07.686Z,25.70
2022-10-30T08:09:07.650Z,25.88
2022-10-30T08:10:07.617Z,26.06
2022-10-30T08:11:07.593Z,26.47
2022-10-30T08:12:07.536Z,26.75
2022-10-30T08:13:07.497Z,27.22
2022-10-30T08:14:07.456Z,27.35
2022-10-30T08:15:07.433Z,27.58
2022-10-30T08:16:07.383Z,27.80
2022-10-30T08:17:07.424Z,28.25
2022-10-30T08:18:07.321Z,28.33
2022-10-30T08:19:07.269Z,28.59
2022-10-30T08:20:07.229Z,28.82
2022-10-30T08:21:07.194Z,29.05
2022-10-30T08:22:07.153Z,29.14
2022-10-30T08:23:07.117Z,28.82
2022-10-30T08:24:07.099Z,28.88
2022-10-30T08:25:07.046Z,29.07
2022-10-30T08:26:07.008Z,29.19
2022-10-30T08:27:06.969Z,29.27
2022-10-30T08:28:06.932Z,29.42
2022-10-30T08:29:06.911Z,29.75
2022-10-30T08:30:06.864Z,29.93
2022-10-30T08:31:06.838Z,30.16
2022-10-30T08:32:06.788Z,30.10
2022-10-30T08:33:06.780Z,30.15
2022-10-30T08:34:06.724Z,30.02
2022-10-30T08:35:06.680Z,30.21
2022-10-30T08:36:06.646Z,30.31
2022-10-30T08:37:06.622Z,30.51
2022-10-30T08:38:06.585Z,30.30
2022-10-30T08:39:06.538Z,30.24
2022-10-30T08:40:06.501Z,30.47
2022-10-30T08:41:06.483Z,30.48
2022-10-30T08:42:06.436Z,30.59
2022-10-30T08:43:06.397Z,30.72
2022-10-30T08:44:06.364Z,30.66
2022-10-30T08:45:06.328Z,30.78
2022-10-30T08:46:06.307Z,30.80
2022-10-30T08:47:06.257Z,30.68
2022-10-30T08:48:06.222Z,30.43
2022-10-30T08:49:06.188Z,30.24
2022-10-30T08:50:06.159Z,29.86
2022-10-30T08:51:06.132Z,29.39
2022-10-30T08:52:06.082Z,28.93
2022-10-30T08:53:06.054Z,28.41
2022-10-30T08:54:06.013Z,28.82
2022-10-30T08:55:05.980Z,29.12
2022-10-30T08:56:05.956Z,29.08
2022-10-30T08:57:05.911Z,29.07
2022-10-30T08:58:05.880Z,29.19
2022-10-30T08:59:05.844Z,29.26
2022-10-30T09:00:05.809Z,29.66
2022-10-30T09:01:05.814Z,29.66
2022-10-30T09:02:05.826Z,29.81
2022-10-30T09:03:05.713Z,29.97
2022-10-30T09:04:05.673Z,30.03
2022-10-30T09:06:05.617Z,30.00
2022-10-30T09:07:07.644Z,30.30
2022-10-30T09:08:05.528Z,30.19
2022-10-30T09:09:05.497Z,29.87
2022-10-30T09:10:05.461Z,29.44
2022-10-30T09:11:05.442Z,29.31
2022-10-30T09:12:05.393Z,29.13
2022-10-30T09:13:05.357Z,28.93
2022-10-30T09:14:05.324Z,29.07
2022-10-30T09:15:05.304Z,29.13
2022-10-30T09:16:05.253Z,28.89
2022-10-30T09:17:05.220Z,28.81
2022-10-30T09:18:05.186Z,28.62
2022-10-30T09:19:05.165Z,28.20
2022-10-30T09:20:05.121Z,27.65
2022-10-30T09:21:05.439Z,27.59
2022-10-30T09:22:05.049Z,27.96
2022-10-30T09:23:05.011Z,27.93
2022-10-30T09:24:04.991Z,27.96
2022-10-30T09:25:04.941Z,28.35
2022-10-30T09:26:04.907Z,28.11
2022-10-30T09:27:04.872Z,27.98
2022-10-30T09:28:04.836Z,27.89
2022-10-30T09:29:04.815Z,28.07
2022-10-30T09:30:04.786Z,28.07
2022-10-30T09:31:04.743Z,28.10
2022-10-30T09:32:04.697Z,28.32
2022-10-30T09:33:05.128Z,28.88
2022-10-30T09:34:04.629Z,29.38
2022-10-30T09:35:04.602Z,29.42
2022-10-30T09:36:04.554Z,28.88
2022-10-30T09:37:04.528Z,28.57
2022-10-30T09:38:04.480Z,28.75
2022-10-30T09:39:04.446Z,28.69
2022-10-30T09:40:04.445Z,28.27
2022-10-30T09:41:04.372Z,28.22
2022-10-30T09:42:04.337Z,28.23
2022-10-30T09:43:04.305Z,28.01
2022-10-30T09:44:04.268Z,28.25
2022-10-30T09:45:28.724Z,28.29
2022-10-30T09:46:04.193Z,27.95
2022-10-30T09:47:04.151Z,27.33
2022-10-30T09:48:04.115Z,27.14
2022-10-30T09:49:04.132Z,26.90
2022-10-30T09:50:04.059Z,26.77
2022-10-30T09:51:04.006Z,26.92
2022-10-30T09:52:03.970Z,26.45
2022-10-30T09:53:03.934Z,26.52
2022-10-30T09:54:03.893Z,27.15
2022-10-30T09:55:03.872Z,28.01
2022-10-30T09:56:03.813Z,28.23
2022-10-30T09:57:03.778Z,28.37
2022-10-30T09:58:03.737Z,28.30
2022-10-30T09:59:03.700Z,28.05
2022-10-30T10:00:03.670Z,28.04
2022-10-30T10:01:07.093Z,28.37
2022-10-30T10:02:03.783Z,28.35
2022-10-30T10:03:03.552Z,28.66
2022-10-30T10:04:03.505Z,28.45
2022-10-30T10:05:03.479Z,28.32
2022-10-30T10:06:03.427Z,28.26
2022-10-30T10:07:03.390Z,28.42
2022-10-30T10:08:03.405Z,28.27
2022-10-30T10:09:03.311Z,27.70
2022-10-30T10:10:03.325Z,27.35
2022-10-30T10:11:03.249Z,27.36
2022-10-30T10:12:03.193Z,27.71
2022-10-30T10:13:03.486Z,28.23
2022-10-30T10:14:03.121Z,28.25
2022-10-30T10:15:03.100Z,28.59
2022-10-30T10:16:03.037Z,28.56
2022-10-30T10:17:02.995Z,27.96
2022-10-30T10:18:03.015Z,27.82
2022-10-30T10:19:02.918Z,27.96
2022-10-30T10:20:02.891Z,28.56
2022-10-30T10:21:02.837Z,28.22
2022-10-30T10:22:02.799Z,27.78
2022-10-30T10:23:02.778Z,27.30
2022-10-30T10:24:02.719Z,27.39
2022-10-30T10:25:02.691Z,27.92
2022-10-30T10:26:02.636Z,28.56
2022-10-30T10:27:02.598Z,28.91
2022-10-30T10:28:02.577Z,28.88
2022-10-30T10:29:02.514Z,28.74
2022-10-30T10:30:02.477Z,28.94
2022-10-30T10:31:02.449Z,29.19
2022-10-30T10:32:02.409Z,29.53
2022-10-30T10:33:02.783Z,29.88
2022-10-30T10:34:02.312Z,29.54
2022-10-30T10:35:02.272Z,29.26
2022-10-30T10:36:02.243Z,29.49
2022-10-30T10:37:02.206Z,29.36
2022-10-30T10:38:02.470Z,29.76
2022-10-30T10:39:02.108Z,29.98
2022-10-30T10:40:02.068Z,30.10
2022-10-30T10:41:02.037Z,30.19
2022-10-30T10:42:02.011Z,30.37
2022-10-30T10:43:01.945Z,29.90
2022-10-30T10:44:01.904Z,29.44
2022-10-30T10:45:01.870Z,29.27
2022-10-30T10:46:01.836Z,28.64
2022-10-30T10:47:06.888Z,28.44
2022-10-30T10:48:02.246Z,28.29
2022-10-30T10:49:01.697Z,28.23
2022-10-30T10:50:01.660Z,28.41
2022-10-30T10:51:01.619Z,28.76
2022-10-30T10:52:01.593Z,28.84
2022-10-30T10:53:01.882Z,28.97
2022-10-30T10:54:01.495Z,28.74
2022-10-30T10:55:01.469Z,28.22
2022-10-30T10:56:01.421Z,27.68
2022-10-30T10:57:01.397Z,27.15
2022-10-30T10:58:01.350Z,26.74
2022-10-30T10:59:01.292Z,26.40
2022-10-30T11:00:01.250Z,26.48
2022-10-30T11:01:01.255Z,26.90
2022-10-30T11:02:01.251Z,27.17
2022-10-30T11:03:01.706Z,27.40
2022-10-30T11:04:01.083Z,27.75
2022-10-30T11:05:01.055Z,27.98
2022-10-30T11:06:01.037Z,28.12
2022-10-30T11:07:00.959Z,27.64
2022-10-30T11:08:01.376Z,27.25
2022-10-30T11:09:01.010Z,26.84
2022-10-30T11:10:00.891Z,26.51
2022-10-30T11:11:00.794Z,26.21
2022-10-30T11:12:00.810Z,25.95
2022-10-30T11:13:01.081Z,25.73
2022-10-30T11:14:00.667Z,25.51
2022-10-30T11:15:00.627Z,25.60
2022-10-30T11:16:00.598Z,25.43
2022-10-30T11:17:00.542Z,25.26
2022-10-30T11:18:00.599Z,25.54
2022-10-30T11:19:00.460Z,25.66
2022-10-30T11:20:00.430Z,26.03
2022-10-30T11:21:00.421Z,26.45
2022-10-30T11:22:00.347Z,26.53
2022-10-30T11:23:00.864Z,26.45
2022-10-30T11:24:00.262Z,26.03
2022-10-30T11:25:00.205Z,25.48
2022-10-30T11:26:00.164Z,25.11
2022-10-30T11:27:00.118Z,25.43
2022-10-30T11:28:00.101Z,25.62
2022-10-30T11:29:00.086Z,25.53
2022-10-30T11:29:59.992Z,25.51
2022-10-30T11:30:59.953Z,25.54
2022-10-30T11:31:59.907Z,25.60
2022-10-30T11:33:00.004Z,25.60
2022-10-30T11:33:59.837Z,25.17
2022-10-30T11:34:59.781Z,24.96
2022-10-30T11:35:59.738Z,25.14
2022-10-30T11:36:59.693Z,25.11
2022-10-30T11:37:59.655Z,25.47
2022-10-30T11:38:59.626Z,25.68
2022-10-30T11:39:59.568Z,25.85
2022-10-30T11:40:59.540Z,25.90
2022-10-30T11:41:59.485Z,25.78
2022-10-30T11:42:59.679Z,25.55
2022-10-30T11:43:59.415Z,25.25
2022-10-30T11:44:59.360Z,25.10
2022-10-30T11:45:59.310Z,25.07
2022-10-30T11:46:59.268Z,25.01
2022-10-30T11:48:02.443Z,24.96
2022-10-30T11:48:59.184Z,24.96
2022-10-30T11:49:59.157Z,24.93
2022-10-30T11:50:59.201Z,25.43
2022-10-30T11:51:59.053Z,25.51
2022-10-30T11:52:59.008Z,25.73
2022-10-30T11:53:58.964Z,25.55
2022-10-30T11:54:58.935Z,25.88
2022-10-30T11:55:58.944Z,26.18
2022-10-30T11:56:58.838Z,26.02
2022-10-30T11:57:59.111Z,26.21
2022-10-30T11:58:58.750Z,26.52
2022-10-30T12:00:04.615Z,26.84
2022-10-30T12:00:58.664Z,27.14
2022-10-30T12:01:58.762Z,27.27
2022-10-30T12:02:58.921Z,27.27
2022-10-30T12:03:58.536Z,27.33
2022-10-30T12:04:58.493Z,27.30
2022-10-30T12:05:58.464Z,27.11
2022-10-30T12:06:58.406Z,26.80
2022-10-30T12:07:58.365Z,26.21
2022-10-30T12:08:58.320Z,26.05
2022-10-30T12:09:58.277Z,25.83
2022-10-30T12:10:58.248Z,25.95
2022-10-30T12:12:00.632Z,25.63
2022-10-30T12:12:58.292Z,25.59
2022-10-30T12:13:58.121Z,25.62
2022-10-30T12:14:58.063Z,25.73
2022-10-30T12:15:58.037Z,25.72
2022-10-30T12:16:57.978Z,25.87
2022-10-30T12:17:57.935Z,25.77
2022-10-30T12:18:57.909Z,25.72
2022-10-30T12:19:57.877Z,25.69
2022-10-30T12:20:57.809Z,25.70
2022-10-30T12:21:57.765Z,25.55
2022-10-30T12:22:58.110Z,25.47
2022-10-30T12:23:57.691Z,25.43
2022-10-30T12:24:57.636Z,25.38
2022-10-30T12:25:57.592Z,25.78
2022-10-30T12:26:57.572Z,26.05
2022-10-30T12:27:57.506Z,26.21
2022-10-30T12:28:57.463Z,26.03
2022-10-30T12:30:12.737Z,25.90
2022-10-30T12:30:57.373Z,25.81
2022-10-30T12:31:57.331Z,25.55
2022-10-30T12:32:57.592Z,25.62
2022-10-30T12:33:57.556Z,25.47
2022-10-30T12:34:57.200Z,25.14
2022-10-30T12:35:57.158Z,25.29
2022-10-30T12:36:57.115Z,25.18
2022-10-30T12:37:57.522Z,25.40
2022-10-30T12:38:57.042Z,25.48
2022-10-30T12:39:56.999Z,25.60
2022-10-30T12:40:56.944Z,25.43
2022-10-30T12:41:56.897Z,25.32
2022-10-30T12:42:56.856Z,25.04
2022-10-30T12:43:56.826Z,25.11
2022-10-30T12:44:56.767Z,25.13
2022-10-30T12:45:56.729Z,25.03
2022-10-30T12:46:56.683Z,25.03
2022-10-30T12:47:56.940Z,24.95
2022-10-30T12:48:56.610Z,24.96
2022-10-30T12:49:56.612Z,24.93
2022-10-30T12:50:56.521Z,24.86
2022-10-30T12:51:56.463Z,24.96
2022-10-30T12:52:56.746Z,25.11
2022-10-30T12:53:56.376Z,25.11
2022-10-30T12:54:56.346Z,25.13
2022-10-30T12:55:56.288Z,25.14